Cape Stefanie — 5BRN3 — position and weather

sailwx.info

Track history (hours):
 
Tides and Currents Weather Stations Pressure Air Temp Water Temp Dewpoint Dewpoint Depression Visibility Wind Speed Wind Dir Waves Ship Positions

Cape Stefanie

Last reported at 2018-Feb-07 09:30 UTC. Time now 2018-Feb-19 16:10 UTC.
Position N 39°36' W 028°15'.
Warning: this ship's position is 12 days out of date.

Length 293 m; draft 10.6 m.

Type: Cargo ship. MMSI: 210593000.

Date/timePositionNaut miles runAvg speedWind from/ knotsBaromVisibWave heightAir tempDewpointWater temp
2018-Feb-07 09:30N 39°36' W 028°15'612.6
2018-Feb-07 09:00N 39°35' W 028°07'712.5
2018-Feb-07 08:26N 39°33' W 027°58'1212.4
2018-Feb-07 07:30N 39°31' W 027°43'612.1
2018-Feb-07 07:00N 39°29' W 027°36'812.1
2018-Feb-07 06:20N 39°27' W 027°25'712.4
2018-Feb-07 05:47N 39°25' W 027°17'412.1
2018-Feb-07 05:28N 39°25' W 027°12'4412.2
2018-Feb-07 01:51N 39°14' W 026°17'8411.7
2018-Feb-06 18:43N 38°53' W 024°32'211.8
2018-Feb-06 18:30N 38°52' W 024°29'  
2018-Feb-03 11:15N 35°58' W 005°32'210.2
2018-Feb-03 11:00N 35°59' W 005°29'5 8.0
2018-Feb-03 10:20N 36°01' W 005°23'6 1.2
2018-Feb-03 05:04N 36°08' W 005°23'0 0.1
2018-Feb-03 04:58N 36°08' W 005°23'0 0.0
2018-Feb-03 03:40N 36°08' W 005°23'0 0.1
2018-Feb-03 03:10N 36°08' W 005°23'0 0.1
2018-Feb-03 01:58N 36°08' W 005°23'0 0.0
2018-Feb-03 00:52N 36°08' W 005°23'7 1.2
2018-Feb-02 19:00N 36°03' W 005°16'1 1.1
2018-Feb-02 18:29N 36°04' W 005°15'1 1.1
2018-Feb-02 17:59N 36°05' W 005°16'0 0.9
2018-Feb-02 17:29N 36°05' W 005°15'1 3.0
2018-Feb-02 17:00N 36°06' W 005°15'213 6.9
2018-Feb-01 10:06N 37°14' W 001°03'111.9
2018-Feb-01 10:00N 37°15' W 001°01'611.9
2018-Feb-01 09:30N 37°19' W 000°56'611.9
2018-Feb-01 09:00N 37°23' W 000°50'611.8
2018-Feb-01 08:30N 37°27' W 000°45'1212.1
2018-Feb-01 07:30N 37°35' W 000°33'611.8
2018-Feb-01 07:00N 37°39' W 000°29'611.6
2018-Feb-01 06:30N 37°44' W 000°25'711.2
2018-Feb-01 05:55N 37°50' W 000°21'511.2
2018-Feb-01 05:26N 37°54' W 000°17'511.1
2018-Feb-01 04:59N 37°59' W 000°13'23512.2
2018-Jan-31 09:40N 41°06' E 002°51'2112.6
2018-Jan-31 07:59N 41°23' E 003°08'612.5
2018-Jan-31 07:30N 41°28' E 003°13'11713.0
2018-Jan-30 22:29N 43°01' E 004°49'1212.7
2018-Jan-30 21:30N 43°10' E 004°59'611.4
2018-Jan-30 21:00N 43°16' E 004°59'611.2
2018-Jan-30 20:30N 43°22' E 004°58'5 9.0
2018-Jan-30 20:01N 43°25' E 004°53'1 2.2
2018-Jan-30 19:30N 43°26' E 004°52'0 0.0
2018-Jan-30 19:00N 43°26' E 004°52'0 0.0
2018-Jan-30 18:30N 43°26' E 004°52'0 0.0
2018-Jan-30 18:00N 43°26' E 004°52'0 0.0
2018-Jan-30 17:30N 43°26' E 004°52'0 0.0
2018-Jan-30 17:00N 43°26' E 004°52'0 0.0
2018-Jan-30 16:30N 43°26' E 004°52'0 0.0
2018-Jan-30 15:57N 43°26' E 004°52'0 0.0
2018-Jan-30 15:30N 43°26' E 004°52'0 0.0
2018-Jan-30 15:00N 43°26' E 004°52'0 0.0
2018-Jan-30 14:30N 43°26' E 004°52'0 0.0
2018-Jan-30 13:30N 43°26' E 004°52'0 0.0
2018-Jan-30 13:00N 43°26' E 004°52'0 0.0
2018-Jan-30 12:30N 43°26' E 004°52'0 0.0
2018-Jan-30 12:00N 43°26' E 004°52'0 0.0
2018-Jan-30 11:30N 43°26' E 004°52'0 0.0
2018-Jan-30 10:30N 43°26' E 004°52'0 0.0
2018-Jan-30 09:30N 43°26' E 004°52'0 0.0
2018-Jan-30 09:00N 43°26' E 004°52'0 0.0
2018-Jan-30 08:29N 43°26' E 004°52'0 0.0
2018-Jan-30 07:59N 43°26' E 004°52'0 0.0
2018-Jan-30 07:29N 43°26' E 004°52'0 0.0
2018-Jan-30 06:59N 43°26' E 004°52'0 0.0
2018-Jan-30 06:29N 43°26' E 004°52'0 0.0
2018-Jan-30 05:59N 43°26' E 004°52'0 0.0
2018-Jan-30 05:29N 43°26' E 004°52'0 0.0
2018-Jan-30 04:59N 43°26' E 004°52'0 0.0
2018-Jan-30 04:29N 43°26' E 004°52'0 0.0
2018-Jan-30 03:59N 43°26' E 004°52'0 0.0
2018-Jan-30 03:29N 43°26' E 004°52'0 0.0
2018-Jan-30 02:59N 43°26' E 004°52'0 0.0
2018-Jan-30 02:29N 43°26' E 004°52'0 0.0
2018-Jan-30 01:59N 43°26' E 004°52'0 0.0
2018-Jan-30 01:29N 43°26' E 004°52'0 0.0
2018-Jan-30 00:59N 43°26' E 004°52'0 0.0
2018-Jan-30 00:29N 43°26' E 004°52'0 0.0
2018-Jan-29 23:59N 43°26' E 004°52'0 0.0
2018-Jan-29 23:29N 43°26' E 004°52'0 0.0
2018-Jan-29 22:59N 43°26' E 004°52'0 0.0
2018-Jan-29 22:29N 43°26' E 004°52'0 0.0
2018-Jan-29 21:59N 43°26' E 004°52'0 0.0
2018-Jan-29 21:29N 43°26' E 004°52'0 0.0
2018-Jan-29 20:59N 43°26' E 004°52'0 0.0
2018-Jan-29 20:29N 43°26' E 004°52'0 0.0
2018-Jan-29 19:59N 43°26' E 004°52'0 0.0
2018-Jan-29 19:29N 43°26' E 004°52'0 0.0
2018-Jan-29 18:59N 43°26' E 004°52'0 0.0
2018-Jan-29 18:29N 43°26' E 004°52'0 0.0
2018-Jan-29 17:59N 43°26' E 004°52'0 0.0
2018-Jan-29 17:29N 43°26' E 004°52'0 0.0
2018-Jan-29 16:59N 43°26' E 004°52'0 0.0
2018-Jan-29 16:29N 43°26' E 004°52'0 0.0
2018-Jan-29 15:59N 43°26' E 004°52'0 0.0
2018-Jan-29 15:29N 43°26' E 004°52'0 0.0
2018-Jan-29 14:59N 43°26' E 004°52'0 0.0
2018-Jan-29 14:29N 43°26' E 004°52'0 0.0
2018-Jan-29 13:59N 43°26' E 004°52'0 0.0
2018-Jan-29 13:28N 43°26' E 004°52'0 0.0
2018-Jan-29 12:58N 43°26' E 004°52'0 0.0
2018-Jan-29 12:28N 43°26' E 004°52'0 0.0
2018-Jan-29 12:00N 43°26' E 004°52'0 0.0
2018-Jan-29 11:28N 43°26' E 004°52'0 0.0
2018-Jan-29 10:58N 43°26' E 004°52'0 0.0
2018-Jan-29 10:28N 43°26' E 004°52'0 0.0
2018-Jan-29 09:58N 43°26' E 004°52'0 0.0
2018-Jan-29 09:28N 43°26' E 004°52'0 0.0
2018-Jan-29 08:58N 43°26' E 004°52'0 0.0
2018-Jan-29 08:28N 43°26' E 004°52'0 0.0
2018-Jan-29 07:58N 43°26' E 004°52'0 0.0
2018-Jan-29 07:28N 43°26' E 004°52'0 0.0
2018-Jan-29 06:55N 43°26' E 004°52'0 0.0
2018-Jan-29 06:28N 43°26' E 004°52'0 0.0
2018-Jan-29 05:58N 43°26' E 004°52'0 0.0
2018-Jan-29 05:28N 43°26' E 004°52'0 0.0
2018-Jan-29 04:58N 43°26' E 004°52'0 0.0
2018-Jan-29 04:28N 43°26' E 004°52'0 0.0
2018-Jan-29 03:58N 43°26' E 004°52'0 0.0
2018-Jan-29 03:28N 43°26' E 004°52'0 0.0
2018-Jan-29 02:54N 43°26' E 004°52'0 0.0
2018-Jan-29 02:30N 43°26' E 004°52'0 0.0
2018-Jan-29 02:00N 43°26' E 004°52'0 0.0
2018-Jan-29 01:27N 43°26' E 004°52'0 0.0
2018-Jan-29 01:00N 43°26' E 004°52'0 0.0
2018-Jan-29 00:30N 43°26' E 004°52'0 0.0
2018-Jan-28 23:57N 43°26' E 004°52'0 0.0
2018-Jan-28 23:27N 43°26' E 004°52'0 0.1
2018-Jan-28 23:00N 43°26' E 004°52'0 0.0
2018-Jan-28 22:30N 43°26' E 004°52'0 0.0
2018-Jan-28 22:00N 43°26' E 004°52'0 0.0
2018-Jan-28 21:30N 43°26' E 004°52'0 0.0
2018-Jan-28 20:57N 43°26' E 004°52'0 0.0
2018-Jan-28 20:30N 43°26' E 004°52'0 0.0
2018-Jan-28 20:00N 43°26' E 004°52'0 0.0
2018-Jan-28 19:30N 43°26' E 004°52'0 0.0
2018-Jan-28 19:00N 43°26' E 004°52'0 0.0
2018-Jan-28 18:30N 43°26' E 004°52'0 0.0
2018-Jan-28 17:57N 43°26' E 004°52'0 0.0
2018-Jan-28 17:30N 43°26' E 004°52'0 0.0
2018-Jan-28 17:00N 43°26' E 004°52'0 0.0
2018-Jan-28 16:30N 43°26' E 004°52'0 0.0
2018-Jan-28 16:00N 43°26' E 004°52'0 0.0
2018-Jan-28 15:30N 43°26' E 004°52'0 0.0
2018-Jan-28 15:00N 43°26' E 004°52'0 0.0
2018-Jan-28 14:30N 43°26' E 004°52'0 0.0
2018-Jan-28 13:57N 43°26' E 004°52'0 0.0
2018-Jan-28 13:30N 43°26' E 004°52'0 0.0
2018-Jan-28 12:57N 43°26' E 004°52'0 0.0
2018-Jan-28 12:27N 43°26' E 004°52'0 0.0
2018-Jan-28 12:00N 43°26' E 004°52'0 0.0
2018-Jan-28 11:30N 43°26' E 004°52'0 0.0
2018-Jan-28 11:00N 43°26' E 004°52'0 0.0
2018-Jan-28 10:30N 43°26' E 004°52'0 0.0
2018-Jan-28 10:00N 43°26' E 004°52'  
Track history (hours):
 
Tides and Currents Weather Stations Pressure Air Temp Water Temp Dewpoint Dewpoint Depression Visibility Wind Speed Wind Dir Waves Ship Positions

Cape Stefanie

Last reported at 2018-Feb-07 09:30 UTC. Time now 2018-Feb-19 16:10 UTC.
Position N 39°36' W 028°15'.
Warning: this ship's position is 12 days out of date.

Length 293 m; draft 10.6 m.

Type: Cargo ship. MMSI: 210593000.

Date/timePositionNaut miles runAvg speedWind from/ knotsBaromVisibWave heightAir tempDewpointWater temp
2018-Feb-07 09:30N 39°36' W 028°15'612.6
2018-Feb-07 09:00N 39°35' W 028°07'712.5
2018-Feb-07 08:26N 39°33' W 027°58'1212.4
2018-Feb-07 07:30N 39°31' W 027°43'612.1
2018-Feb-07 07:00N 39°29' W 027°36'812.1
2018-Feb-07 06:20N 39°27' W 027°25'712.4
2018-Feb-07 05:47N 39°25' W 027°17'412.1
2018-Feb-07 05:28N 39°25' W 027°12'4412.2
2018-Feb-07 01:51N 39°14' W 026°17'8411.7
2018-Feb-06 18:43N 38°53' W 024°32'211.8
2018-Feb-06 18:30N 38°52' W 024°29'  
2018-Feb-03 11:15N 35°58' W 005°32'210.2
2018-Feb-03 11:00N 35°59' W 005°29'5 8.0
2018-Feb-03 10:20N 36°01' W 005°23'6 1.2
2018-Feb-03 05:04N 36°08' W 005°23'0 0.1
2018-Feb-03 04:58N 36°08' W 005°23'0 0.0
2018-Feb-03 03:40N 36°08' W 005°23'0 0.1
2018-Feb-03 03:10N 36°08' W 005°23'0 0.1
2018-Feb-03 01:58N 36°08' W 005°23'0 0.0
2018-Feb-03 00:52N 36°08' W 005°23'7 1.2
2018-Feb-02 19:00N 36°03' W 005°16'1 1.1
2018-Feb-02 18:29N 36°04' W 005°15'1 1.1
2018-Feb-02 17:59N 36°05' W 005°16'0 0.9
2018-Feb-02 17:29N 36°05' W 005°15'1 3.0
2018-Feb-02 17:00N 36°06' W 005°15'213 6.9
2018-Feb-01 10:06N 37°14' W 001°03'111.9
2018-Feb-01 10:00N 37°15' W 001°01'611.9
2018-Feb-01 09:30N 37°19' W 000°56'611.9
2018-Feb-01 09:00N 37°23' W 000°50'611.8
2018-Feb-01 08:30N 37°27' W 000°45'1212.1
2018-Feb-01 07:30N 37°35' W 000°33'611.8
2018-Feb-01 07:00N 37°39' W 000°29'611.6
2018-Feb-01 06:30N 37°44' W 000°25'711.2
2018-Feb-01 05:55N 37°50' W 000°21'511.2
2018-Feb-01 05:26N 37°54' W 000°17'511.1
2018-Feb-01 04:59N 37°59' W 000°13'23512.2
2018-Jan-31 09:40N 41°06' E 002°51'2112.6
2018-Jan-31 07:59N 41°23' E 003°08'612.5
2018-Jan-31 07:30N 41°28' E 003°13'11713.0
2018-Jan-30 22:29N 43°01' E 004°49'1212.7
2018-Jan-30 21:30N 43°10' E 004°59'611.4
2018-Jan-30 21:00N 43°16' E 004°59'611.2
2018-Jan-30 20:30N 43°22' E 004°58'5 9.0
2018-Jan-30 20:01N 43°25' E 004°53'1 2.2
2018-Jan-30 19:30N 43°26' E 004°52'0 0.0
2018-Jan-30 19:00N 43°26' E 004°52'0 0.0
2018-Jan-30 18:30N 43°26' E 004°52'0 0.0
2018-Jan-30 18:00N 43°26' E 004°52'0 0.0
2018-Jan-30 17:30N 43°26' E 004°52'0 0.0
2018-Jan-30 17:00N 43°26' E 004°52'0 0.0
2018-Jan-30 16:30N 43°26' E 004°52'0 0.0
2018-Jan-30 15:57N 43°26' E 004°52'0 0.0
2018-Jan-30 15:30N 43°26' E 004°52'0 0.0
2018-Jan-30 15:00N 43°26' E 004°52'0 0.0
2018-Jan-30 14:30N 43°26' E 004°52'0 0.0
2018-Jan-30 13:30N 43°26' E 004°52'0 0.0
2018-Jan-30 13:00N 43°26' E 004°52'0 0.0
2018-Jan-30 12:30N 43°26' E 004°52'0 0.0
2018-Jan-30 12:00N 43°26' E 004°52'0 0.0
2018-Jan-30 11:30N 43°26' E 004°52'0 0.0
2018-Jan-30 10:30N 43°26' E 004°52'0 0.0
2018-Jan-30 09:30N 43°26' E 004°52'0 0.0
2018-Jan-30 09:00N 43°26' E 004°52'0 0.0
2018-Jan-30 08:29N 43°26' E 004°52'0 0.0
2018-Jan-30 07:59N 43°26' E 004°52'0 0.0
2018-Jan-30 07:29N 43°26' E 004°52'0 0.0
2018-Jan-30 06:59N 43°26' E 004°52'0 0.0
2018-Jan-30 06:29N 43°26' E 004°52'0 0.0
2018-Jan-30 05:59N 43°26' E 004°52'0 0.0
2018-Jan-30 05:29N 43°26' E 004°52'0 0.0
2018-Jan-30 04:59N 43°26' E 004°52'0 0.0
2018-Jan-30 04:29N 43°26' E 004°52'0 0.0
2018-Jan-30 03:59N 43°26' E 004°52'0 0.0
2018-Jan-30 03:29N 43°26' E 004°52'0 0.0
2018-Jan-30 02:59N 43°26' E 004°52'0 0.0
2018-Jan-30 02:29N 43°26' E 004°52'0 0.0
2018-Jan-30 01:59N 43°26' E 004°52'0 0.0
2018-Jan-30 01:29N 43°26' E 004°52'0 0.0
2018-Jan-30 00:59N 43°26' E 004°52'0 0.0
2018-Jan-30 00:29N 43°26' E 004°52'0 0.0
2018-Jan-29 23:59N 43°26' E 004°52'0 0.0
2018-Jan-29 23:29N 43°26' E 004°52'0 0.0
2018-Jan-29 22:59N 43°26' E 004°52'0 0.0
2018-Jan-29 22:29N 43°26' E 004°52'0 0.0
2018-Jan-29 21:59N 43°26' E 004°52'0 0.0
2018-Jan-29 21:29N 43°26' E 004°52'0 0.0
2018-Jan-29 20:59N 43°26' E 004°52'0 0.0
2018-Jan-29 20:29N 43°26' E 004°52'0 0.0
2018-Jan-29 19:59N 43°26' E 004°52'0 0.0
2018-Jan-29 19:29N 43°26' E 004°52'0 0.0
2018-Jan-29 18:59N 43°26' E 004°52'0 0.0
2018-Jan-29 18:29N 43°26' E 004°52'0 0.0
2018-Jan-29 17:59N 43°26' E 004°52'0 0.0
2018-Jan-29 17:29N 43°26' E 004°52'0 0.0
2018-Jan-29 16:59N 43°26' E 004°52'0 0.0
2018-Jan-29 16:29N 43°26' E 004°52'0 0.0
2018-Jan-29 15:59N 43°26' E 004°52'0 0.0
2018-Jan-29 15:29N 43°26' E 004°52'0 0.0
2018-Jan-29 14:59N 43°26' E 004°52'0 0.0
2018-Jan-29 14:29N 43°26' E 004°52'0 0.0
2018-Jan-29 13:59N 43°26' E 004°52'0 0.0
2018-Jan-29 13:28N 43°26' E 004°52'0 0.0
2018-Jan-29 12:58N 43°26' E 004°52'0 0.0
2018-Jan-29 12:28N 43°26' E 004°52'0 0.0
2018-Jan-29 12:00N 43°26' E 004°52'0 0.0
2018-Jan-29 11:28N 43°26' E 004°52'0 0.0
2018-Jan-29 10:58N 43°26' E 004°52'0 0.0
2018-Jan-29 10:28N 43°26' E 004°52'0 0.0
2018-Jan-29 09:58N 43°26' E 004°52'0 0.0
2018-Jan-29 09:28N 43°26' E 004°52'0 0.0
2018-Jan-29 08:58N 43°26' E 004°52'0 0.0
2018-Jan-29 08:28N 43°26' E 004°52'0 0.0
2018-Jan-29 07:58N 43°26' E 004°52'0 0.0
2018-Jan-29 07:28N 43°26' E 004°52'0 0.0
2018-Jan-29 06:55N 43°26' E 004°52'0 0.0
2018-Jan-29 06:28N 43°26' E 004°52'0 0.0
2018-Jan-29 05:58N 43°26' E 004°52'0 0.0
2018-Jan-29 05:28N 43°26' E 004°52'0 0.0
2018-Jan-29 04:58N 43°26' E 004°52'0 0.0
2018-Jan-29 04:28N 43°26' E 004°52'0 0.0
2018-Jan-29 03:58N 43°26' E 004°52'0 0.0
2018-Jan-29 03:28N 43°26' E 004°52'0 0.0
2018-Jan-29 02:54N 43°26' E 004°52'0 0.0
2018-Jan-29 02:30N 43°26' E 004°52'0 0.0
2018-Jan-29 02:00N 43°26' E 004°52'0 0.0
2018-Jan-29 01:27N 43°26' E 004°52'0 0.0
2018-Jan-29 01:00N 43°26' E 004°52'0 0.0
2018-Jan-29 00:30N 43°26' E 004°52'0 0.0
2018-Jan-28 23:57N 43°26' E 004°52'0 0.0
2018-Jan-28 23:27N 43°26' E 004°52'0 0.1
2018-Jan-28 23:00N 43°26' E 004°52'0 0.0
2018-Jan-28 22:30N 43°26' E 004°52'0 0.0
2018-Jan-28 22:00N 43°26' E 004°52'0 0.0
2018-Jan-28 21:30N 43°26' E 004°52'0 0.0
2018-Jan-28 20:57N 43°26' E 004°52'0 0.0
2018-Jan-28 20:30N 43°26' E 004°52'0 0.0
2018-Jan-28 20:00N 43°26' E 004°52'0 0.0
2018-Jan-28 19:30N 43°26' E 004°52'0 0.0
2018-Jan-28 19:00N 43°26' E 004°52'0 0.0
2018-Jan-28 18:30N 43°26' E 004°52'0 0.0
2018-Jan-28 17:57N 43°26' E 004°52'0 0.0
2018-Jan-28 17:30N 43°26' E 004°52'0 0.0
2018-Jan-28 17:00N 43°26' E 004°52'0 0.0
2018-Jan-28 16:30N 43°26' E 004°52'0 0.0
2018-Jan-28 16:00N 43°26' E 004°52'0 0.0
2018-Jan-28 15:30N 43°26' E 004°52'0 0.0
2018-Jan-28 15:00N 43°26' E 004°52'0 0.0
2018-Jan-28 14:30N 43°26' E 004°52'0 0.0
2018-Jan-28 13:57N 43°26' E 004°52'0 0.0
2018-Jan-28 13:30N 43°26' E 004°52'0 0.0
2018-Jan-28 12:57N 43°26' E 004°52'0 0.0
2018-Jan-28 12:27N 43°26' E 004°52'0 0.0
2018-Jan-28 12:00N 43°26' E 004°52'0 0.0
2018-Jan-28 11:30N 43°26' E 004°52'0 0.0
2018-Jan-28 11:00N 43°26' E 004°52'0 0.0
2018-Jan-28 10:30N 43°26' E 004°52'0 0.0
2018-Jan-28 10:00N 43°26' E 004°52'  

Dump ship's entire track history